createdAt,value
2018-02-12T00:00:01.257Z,2.28
2018-02-12T00:01:01.449Z,2.15
2018-02-12T00:02:00.930Z,2.22
2018-02-12T00:03:01.391Z,2.14
2018-02-12T00:04:01.367Z,2.14
2018-02-12T00:05:01.327Z,2.17
2018-02-12T00:06:01.297Z,2.22
2018-02-12T00:07:01.270Z,2.2
2018-02-12T00:08:00.992Z,2.13
2018-02-12T00:09:00.957Z,2.24
2018-02-12T00:10:00.925Z,2.29
2018-02-12T00:11:00.897Z,2.2
2018-02-12T00:12:01.107Z,2.22
2018-02-12T00:13:00.831Z,2.17
2018-02-12T00:14:00.558Z,2.15
2018-02-12T00:15:00.781Z,2.17
2018-02-12T00:16:00.748Z,2.15
2018-02-12T00:17:00.708Z,2.17
2018-02-12T00:18:00.925Z,2.18
2018-02-12T00:19:00.904Z,2.2
2018-02-12T00:20:00.866Z,2.28
2018-02-12T00:21:00.836Z,2.17
2018-02-12T00:22:00.804Z,2.26
2018-02-12T00:23:00.280Z,2.29
2018-02-12T00:24:00.742Z,2.25
2018-02-12T00:25:00.711Z,2.26
2018-02-12T00:26:00.435Z,2.24
2018-02-12T00:27:00.648Z,2.24
2018-02-12T00:28:00.417Z,2.29
2018-02-12T00:29:00.343Z,2.24
2018-02-12T00:30:00.551Z,2.26
2018-02-12T00:31:00.526Z,2.26
2018-02-12T00:32:00.493Z,2.33
2018-02-12T00:33:00.465Z,2.35
2018-02-12T00:34:00.190Z,2.33
2018-02-12T00:35:00.159Z,2.26
2018-02-12T00:36:00.368Z,2.25
2018-02-12T00:37:00.346Z,2.31
2018-02-12T00:38:00.310Z,2.31
2018-02-12T00:39:00.281Z,2.33
2018-02-12T00:40:00.254Z,2.32
2018-02-12T00:40:59.974Z,2.31
2018-02-12T00:41:59.945Z,2.33
2018-02-12T00:42:59.909Z,2.31
2018-02-12T00:43:59.879Z,2.35
2018-02-12T00:45:00.097Z,2.33
2018-02-12T00:45:59.570Z,2.35
2018-02-12T00:47:00.042Z,2.29
2018-02-12T00:48:00.007Z,2.44
2018-02-12T00:48:59.968Z,2.35
2018-02-12T00:49:59.694Z,2.39
2018-02-12T00:50:59.915Z,2.44
2018-02-12T00:51:59.635Z,2.38
2018-02-12T00:52:59.847Z,2.42
2018-02-12T00:53:59.574Z,2.43
2018-02-12T00:54:59.556Z,2.43
2018-02-12T00:55:59.757Z,2.39
2018-02-12T00:56:59.720Z,2.44
2018-02-12T00:57:59.694Z,2.26
2018-02-12T00:58:59.666Z,2.39
2018-02-12T00:59:59.385Z,2.33
2018-02-12T01:00:59.601Z,2.32
2018-02-12T01:01:59.572Z,2.29
2018-02-12T01:02:59.051Z,2.28
2018-02-12T01:03:59.511Z,2.36
2018-02-12T01:04:59.476Z,2.35
2018-02-12T01:05:59.445Z,2.26
2018-02-12T01:06:59.423Z,2.24
2018-02-12T01:07:59.388Z,2.24
2018-02-12T01:08:59.374Z,2.2
2018-02-12T01:09:59.327Z,2.11
2018-02-12T01:10:59.297Z,2.1
2018-02-12T01:11:59.264Z,1.99
2018-02-12T01:12:59.228Z,1.85
2018-02-12T01:13:58.996Z,1.87
2018-02-12T01:14:59.247Z,1.87
2018-02-12T01:15:58.898Z,1.76
2018-02-12T01:16:58.866Z,1.56
2018-02-12T01:17:59.078Z,1.48
2018-02-12T01:18:58.801Z,1.53
2018-02-12T01:19:58.774Z,1.45
2018-02-12T01:20:58.984Z,1.35
2018-02-12T01:21:58.956Z,1.41
2018-02-12T01:22:58.676Z,1.35
2018-02-12T01:23:58.890Z,1.3
2018-02-12T01:24:58.861Z,1.22
2018-02-12T01:25:58.585Z,1.31
2018-02-12T01:26:58.309Z,1.26
2018-02-12T01:27:58.765Z,1.24
2018-02-12T01:28:58.497Z,1.31
2018-02-12T01:29:58.461Z,1.28
2018-02-12T01:30:58.425Z,1.24
2018-02-12T01:31:58.394Z,1.32
2018-02-12T01:32:58.362Z,1.3
2018-02-12T01:33:58.581Z,1.3
2018-02-12T01:34:58.302Z,1.37
2018-02-12T01:35:58.275Z,1.34
2018-02-12T01:36:58.538Z,1.38
2018-02-12T01:37:58.205Z,1.41
2018-02-12T01:38:58.177Z,1.41
2018-02-12T01:39:58.391Z,1.38
2018-02-12T01:40:58.111Z,1.35
2018-02-12T01:41:58.081Z,1.35
2018-02-12T01:42:58.051Z,1.5
2018-02-12T01:43:58.019Z,1.4
2018-02-12T01:44:58.241Z,1.44
2018-02-12T01:45:58.202Z,1.45
2018-02-12T01:46:58.166Z,1.49
2018-02-12T01:47:58.140Z,1.52
2018-02-12T01:48:57.912Z,1.5
2018-02-12T01:49:58.074Z,1.58
2018-02-12T01:50:58.041Z,1.52
2018-02-12T01:51:57.522Z,1.52
2018-02-12T01:52:57.984Z,1.55
2018-02-12T01:53:57.950Z,1.63
2018-02-12T01:54:57.685Z,1.63
2018-02-12T01:55:57.643Z,1.58
2018-02-12T01:56:57.858Z,1.59
2018-02-12T01:57:57.824Z,1.6
2018-02-12T01:58:57.794Z,1.63
2018-02-12T01:59:57.760Z,1.77
2018-02-12T02:00:57.482Z,1.78
2018-02-12T02:01:57.698Z,1.74
2018-02-12T02:02:57.769Z,1.63
2018-02-12T02:03:57.635Z,1.81
2018-02-12T02:04:57.611Z,1.74
2018-02-12T02:05:57.329Z,1.8
2018-02-12T02:06:57.305Z,1.84
2018-02-12T02:07:57.510Z,1.84
2018-02-12T02:08:57.476Z,1.77
2018-02-12T02:09:57.444Z,1.87
2018-02-12T02:10:57.171Z,1.78
2018-02-12T02:11:57.397Z,1.84
2018-02-12T02:12:57.359Z,1.8
2018-02-12T02:13:57.084Z,1.8
2018-02-12T02:14:57.297Z,1.85
2018-02-12T02:15:57.259Z,1.77
2018-02-12T02:16:57.232Z,1.84
2018-02-12T02:17:57.197Z,1.78
2018-02-12T02:18:56.918Z,1.81
2018-02-12T02:19:57.135Z,1.89
2018-02-12T02:20:57.104Z,1.88
2018-02-12T02:21:57.071Z,1.88
2018-02-12T02:22:57.041Z,1.89
2018-02-12T02:23:57.008Z,1.87
2018-02-12T02:24:56.978Z,1.88
2018-02-12T02:25:56.700Z,1.89
2018-02-12T02:26:56.919Z,1.92
2018-02-12T02:27:56.393Z,1.94
2018-02-12T02:28:56.884Z,1.95
2018-02-12T02:29:56.574Z,2.04
2018-02-12T02:30:56.793Z,2
2018-02-12T02:31:56.767Z,1.97
2018-02-12T02:32:56.736Z,2.02
2018-02-12T02:33:56.705Z,2.04
2018-02-12T02:34:56.675Z,2.02
2018-02-12T02:35:56.391Z,1.99
2018-02-12T02:36:56.365Z,2.02
2018-02-12T02:37:56.582Z,2.02
2018-02-12T02:38:56.545Z,2.06
2018-02-12T02:39:56.521Z,2.04
2018-02-12T02:40:56.233Z,2.02
2018-02-12T02:41:56.456Z,1.99
2018-02-12T02:42:56.421Z,2.02
2018-02-12T02:43:56.393Z,1.97
2018-02-12T02:44:56.366Z,1.99
2018-02-12T02:45:56.088Z,1.99
2018-02-12T02:46:56.302Z,2.04
2018-02-12T02:47:56.265Z,2.06
2018-02-12T02:48:55.987Z,1.99
2018-02-12T02:49:55.712Z,2
2018-02-12T02:50:55.934Z,2.02
2018-02-12T02:51:55.910Z,1.99
2018-02-12T02:52:56.111Z,2.04
2018-02-12T02:53:56.075Z,2.02
2018-02-12T02:54:55.802Z,2.06
2018-02-12T02:55:55.770Z,2.02
2018-02-12T02:56:55.985Z,2.04
2018-02-12T02:57:55.956Z,1.97
2018-02-12T02:58:55.926Z,2.02
2018-02-12T02:59:55.887Z,1.99
2018-02-12T03:00:55.858Z,2.06
2018-02-12T03:01:55.872Z,1.99
2018-02-12T03:02:55.799Z,2
2018-02-12T03:03:55.521Z,1.97
2018-02-12T03:04:55.487Z,1.92
2018-02-12T03:05:55.703Z,1.95
2018-02-12T03:06:55.678Z,1.85
2018-02-12T03:07:55.394Z,1.95
2018-02-12T03:08:55.361Z,1.94
2018-02-12T03:09:55.577Z,1.99
2018-02-12T03:10:55.303Z,2.02
2018-02-12T03:11:55.273Z,2.02
2018-02-12T03:12:55.239Z,2.06
2018-02-12T03:13:55.208Z,1.99
2018-02-12T03:14:55.177Z,2.02
2018-02-12T03:15:54.898Z,2
2018-02-12T03:16:55.115Z,1.97
2018-02-12T03:17:55.336Z,1.99
2018-02-12T03:18:55.307Z,1.97
2018-02-12T03:19:55.271Z,2.02
2018-02-12T03:20:54.746Z,2.08
2018-02-12T03:21:55.210Z,2.02
2018-02-12T03:22:55.172Z,2
2018-02-12T03:23:54.896Z,2
2018-02-12T03:24:55.114Z,2.04
2018-02-12T03:25:55.085Z,2.02
2018-02-12T03:26:54.804Z,2.06
2018-02-12T03:27:55.017Z,2
2018-02-12T03:28:54.743Z,1.99
2018-02-12T03:29:54.710Z,1.99
2018-02-12T03:30:54.927Z,1.99
2018-02-12T03:31:54.894Z,2.06
2018-02-12T03:32:54.871Z,2.1
2018-02-12T03:33:54.838Z,1.99
2018-02-12T03:34:54.555Z,1.99
2018-02-12T03:35:54.528Z,2.06
2018-02-12T03:36:54.495Z,2.08
2018-02-12T03:37:54.706Z,2.06
2018-02-12T03:38:54.689Z,1.95
2018-02-12T03:39:54.644Z,2.1
2018-02-12T03:40:54.370Z,2.06
2018-02-12T03:41:54.336Z,1.99
2018-02-12T03:42:54.550Z,2.07
2018-02-12T03:43:54.521Z,2.02
2018-02-12T03:44:54.490Z,2.02
2018-02-12T03:45:54.458Z,2.06
2018-02-12T03:46:54.425Z,2.02
2018-02-12T03:47:54.149Z,2.11
2018-02-12T03:48:53.874Z,2.1
2018-02-12T03:49:54.089Z,2.06
2018-02-12T03:50:54.053Z,1.97
2018-02-12T03:51:54.271Z,2.07
2018-02-12T03:52:53.996Z,2.04
2018-02-12T03:53:54.211Z,2.02
2018-02-12T03:54:54.179Z,1.97
2018-02-12T03:55:54.144Z,2
2018-02-12T03:56:53.870Z,1.99
2018-02-12T03:57:53.842Z,2
2018-02-12T03:58:54.058Z,2
2018-02-12T03:59:53.781Z,2.08
2018-02-12T04:00:53.998Z,1.97
2018-02-12T04:01:53.714Z,1.99
2018-02-12T04:02:53.929Z,2
2018-02-12T04:03:53.900Z,2.04
2018-02-12T04:04:53.870Z,2.02
2018-02-12T04:05:53.837Z,2
2018-02-12T04:06:53.565Z,2.02
2018-02-12T04:07:53.530Z,2.04
2018-02-12T04:08:53.744Z,1.97
2018-02-12T04:09:53.467Z,2.06
2018-02-12T04:10:53.682Z,2.06
2018-02-12T04:11:53.651Z,2.1
2018-02-12T04:12:53.646Z,2.1
2018-02-12T04:13:53.584Z,2.07
2018-02-12T04:14:53.310Z,2.1
2018-02-12T04:15:53.527Z,2.11
2018-02-12T04:16:53.250Z,2.08
2018-02-12T04:17:53.219Z,2.08
2018-02-12T04:18:53.435Z,2.11
2018-02-12T04:19:52.910Z,2.14
2018-02-12T04:20:53.370Z,2.08
2018-02-12T04:21:53.342Z,2.06
2018-02-12T04:22:53.309Z,2.1
2018-02-12T04:23:53.301Z,2.17
2018-02-12T04:24:53.320Z,2.11
2018-02-12T04:25:52.967Z,2.07
2018-02-12T04:26:52.942Z,2.06
2018-02-12T04:27:53.161Z,2.04
2018-02-12T04:28:53.122Z,2.14
2018-02-12T04:29:53.091Z,2.1
2018-02-12T04:30:53.059Z,1.99
2018-02-12T04:31:53.027Z,2.18
2018-02-12T04:32:52.754Z,2.14
2018-02-12T04:33:52.962Z,2.07
2018-02-12T04:34:52.937Z,2.04
2018-02-12T04:35:52.660Z,2.07
2018-02-12T04:36:52.876Z,2.07
2018-02-12T04:37:52.857Z,2.13
2018-02-12T04:38:52.813Z,2.18
2018-02-12T04:39:52.779Z,2.11
2018-02-12T04:40:52.504Z,2.1
2018-02-12T04:41:52.475Z,2.08
2018-02-12T04:42:52.443Z,2.07
2018-02-12T04:43:52.659Z,2.11
2018-02-12T04:44:52.626Z,2.14
2018-02-12T04:45:52.595Z,2.13
2018-02-12T04:46:52.568Z,2.13
2018-02-12T04:47:52.534Z,2.14
2018-02-12T04:48:52.502Z,2.07
2018-02-12T04:49:52.468Z,2.1
2018-02-12T04:50:52.190Z,2.06
2018-02-12T04:51:52.411Z,2.1
2018-02-12T04:52:52.377Z,2.13
2018-02-12T04:53:52.100Z,2.1
2018-02-12T04:54:52.318Z,2.04
2018-02-12T04:55:51.794Z,1.97
2018-02-12T04:56:52.011Z,1.97
2018-02-12T04:57:51.974Z,2
2018-02-12T04:58:52.189Z,2.02
2018-02-12T04:59:52.158Z,2.04
2018-02-12T05:00:52.131Z,2
2018-02-12T05:01:51.852Z,2.02
2018-02-12T05:02:51.818Z,2.04
2018-02-12T05:03:51.793Z,2.13
2018-02-12T05:04:52.006Z,2.08
2018-02-12T05:05:51.727Z,2.13
2018-02-12T05:06:51.947Z,2.11
2018-02-12T05:07:51.914Z,2.1
2018-02-12T05:08:51.391Z,2.08
2018-02-12T05:09:51.849Z,2.13
2018-02-12T05:10:51.815Z,2.13
2018-02-12T05:11:51.547Z,2.14
2018-02-12T05:12:51.511Z,2.14
2018-02-12T05:13:52.734Z,2.1
2018-02-12T05:14:51.697Z,2.06
2018-02-12T05:15:51.663Z,1.99
2018-02-12T05:16:51.640Z,2.06
2018-02-12T05:17:51.603Z,2.08
2018-02-12T05:18:51.574Z,2
2018-02-12T05:19:51.298Z,2.06
2018-02-12T05:20:51.515Z,2
2018-02-12T05:21:51.481Z,1.94
2018-02-12T05:22:51.199Z,2.02
2018-02-12T05:23:51.173Z,2
2018-02-12T05:24:50.891Z,2.02
2018-02-12T05:25:51.351Z,2
2018-02-12T05:26:51.324Z,2.02
2018-02-12T05:27:51.291Z,2.1
2018-02-12T05:28:51.263Z,2.11
2018-02-12T05:29:51.228Z,2.14
2018-02-12T05:30:50.950Z,2.13
2018-02-12T05:31:51.161Z,2.08
2018-02-12T05:32:51.139Z,2.11
2018-02-12T05:33:51.112Z,2.1
2018-02-12T05:34:51.068Z,2.04
2018-02-12T05:35:50.796Z,2.15
2018-02-12T05:36:50.518Z,2.15
2018-02-12T05:37:50.975Z,2.08
2018-02-12T05:38:50.702Z,2.1
2018-02-12T05:39:50.674Z,2.13
2018-02-12T05:40:50.882Z,2.15
2018-02-12T05:41:50.365Z,2.08
2018-02-12T05:42:50.579Z,2.11
2018-02-12T05:43:50.797Z,2.11
2018-02-12T05:44:50.759Z,2.1
2018-02-12T05:45:50.730Z,2.13
2018-02-12T05:46:50.701Z,2.07
2018-02-12T05:47:50.664Z,2.08
2018-02-12T05:48:50.393Z,2.08
2018-02-12T05:49:50.605Z,2.1
2018-02-12T05:50:50.328Z,2.13
2018-02-12T05:51:50.300Z,2.13
2018-02-12T05:52:50.513Z,2.07
2018-02-12T05:53:50.487Z,2.13
2018-02-12T05:54:50.453Z,2.13
2018-02-12T05:55:50.175Z,2.06
2018-02-12T05:56:50.388Z,2.1
2018-02-12T05:57:50.358Z,2.15
2018-02-12T05:58:50.117Z,2.13
2018-02-12T05:59:50.296Z,2.06
2018-02-12T06:00:50.345Z,2.11
2018-02-12T06:01:49.995Z,2.13
2018-02-12T06:02:49.956Z,2.14
2018-02-12T06:03:50.168Z,2.08
2018-02-12T06:04:49.895Z,2.08
2018-02-12T06:05:50.109Z,2.14
2018-02-12T06:06:50.076Z,2.11
2018-02-12T06:07:50.051Z,2.13
2018-02-12T06:08:49.771Z,2.14
2018-02-12T06:09:49.985Z,2.08
2018-02-12T06:10:49.951Z,2.11
2018-02-12T06:11:49.924Z,2.22
2018-02-12T06:12:49.891Z,2.13
2018-02-12T06:13:49.616Z,2.15
2018-02-12T06:14:49.588Z,2.1
2018-02-12T06:15:49.813Z,2.06
2018-02-12T06:16:49.524Z,2.2
2018-02-12T06:17:49.747Z,2.14
2018-02-12T06:18:49.464Z,2.22
2018-02-12T06:19:49.683Z,2.14
2018-02-12T06:20:49.400Z,2.15
2018-02-12T06:21:49.657Z,2.2
2018-02-12T06:22:49.584Z,2.13
2018-02-12T06:23:49.575Z,2.2
2018-02-12T06:24:49.275Z,2.06
2018-02-12T06:25:49.246Z,2.11
2018-02-12T06:26:49.214Z,2.1
2018-02-12T06:27:49.427Z,2.14
2018-02-12T06:28:49.396Z,2.14
2018-02-12T06:29:49.366Z,2.13
2018-02-12T06:30:49.340Z,2.17
2018-02-12T06:31:49.304Z,2.11
2018-02-12T06:32:49.273Z,2.1
2018-02-12T06:33:49.240Z,2.13
2018-02-12T06:34:49.211Z,2.08
2018-02-12T06:35:48.935Z,2.11
2018-02-12T06:36:48.657Z,2.13
2018-02-12T06:37:49.118Z,2.15
2018-02-12T06:38:49.092Z,2.15
2018-02-12T06:39:49.063Z,2.14
2018-02-12T06:40:48.779Z,2.17
2018-02-12T06:41:48.998Z,2.15
2018-02-12T06:42:48.963Z,2.14
2018-02-12T06:43:48.685Z,2.13
2018-02-12T06:44:48.906Z,2.11
2018-02-12T06:45:48.872Z,2.14
2018-02-12T06:46:48.963Z,2.22
2018-02-12T06:47:48.807Z,2.17
2018-02-12T06:48:48.533Z,2.08
2018-02-12T06:49:48.502Z,2.2
2018-02-12T06:50:48.725Z,2.14
2018-02-12T06:51:48.685Z,2.08
2018-02-12T06:52:48.658Z,2.15
2018-02-12T06:53:48.620Z,2.18
2018-02-12T06:54:48.593Z,2.06
2018-02-12T06:55:48.557Z,2.13
2018-02-12T06:56:48.529Z,2.2
2018-02-12T06:57:48.502Z,2.18
2018-02-12T06:58:48.218Z,2.13
2018-02-12T06:59:48.440Z,2.2
2018-02-12T07:00:48.404Z,2.13
2018-02-12T07:01:48.373Z,2.11
2018-02-12T07:02:48.347Z,2.13
2018-02-12T07:03:48.065Z,2.13
2018-02-12T07:04:48.315Z,2.11
2018-02-12T07:05:48.249Z,2.13
2018-02-12T07:06:47.972Z,2.07
2018-02-12T07:07:48.193Z,2.1
2018-02-12T07:08:48.160Z,2.04
2018-02-12T07:09:48.124Z,2.08
2018-02-12T07:10:47.851Z,2.02
2018-02-12T07:11:48.064Z,2.04
2018-02-12T07:12:48.036Z,2.1
2018-02-12T07:13:47.755Z,2.11
2018-02-12T07:14:47.721Z,2.04
2018-02-12T07:15:47.939Z,2.11
2018-02-12T07:16:47.910Z,2.1
2018-02-12T07:17:47.877Z,2.13
2018-02-12T07:18:47.599Z,2.1
2018-02-12T07:19:47.571Z,2.13
2018-02-12T07:20:47.785Z,2.06
2018-02-12T07:21:47.514Z,2.1
2018-02-12T07:22:47.718Z,2.15
2018-02-12T07:23:47.693Z,2.22
2018-02-12T07:24:47.415Z,2.15
2018-02-12T07:25:47.734Z,2.1
2018-02-12T07:26:47.597Z,2.17
2018-02-12T07:27:47.566Z,2.13
2018-02-12T07:28:47.049Z,2.17
2018-02-12T07:29:47.265Z,2.13
2018-02-12T07:30:47.475Z,2.15
2018-02-12T07:31:47.196Z,2.11
2018-02-12T07:32:47.415Z,2.11
2018-02-12T07:33:47.389Z,2.18
2018-02-12T07:34:47.353Z,2.08
2018-02-12T07:35:47.072Z,2.14
2018-02-12T07:36:47.040Z,2.14
2018-02-12T07:37:47.263Z,2.15
2018-02-12T07:38:47.223Z,2.13
2018-02-12T07:39:47.198Z,2.17
2018-02-12T07:40:46.672Z,2.07
2018-02-12T07:41:47.135Z,2.2
2018-02-12T07:42:46.860Z,2.18
2018-02-12T07:43:47.070Z,2.14
2018-02-12T07:44:46.551Z,2.13
2018-02-12T07:45:47.014Z,2.29
2018-02-12T07:46:46.490Z,2.24
2018-02-12T07:47:46.709Z,2.33
2018-02-12T07:48:46.920Z,2.29
2018-02-12T07:49:46.890Z,2.39
2018-02-12T07:50:47.005Z,2.46
2018-02-12T07:51:46.656Z,2.42
2018-02-12T07:52:46.561Z,2.42
2018-02-12T07:53:46.525Z,2.47
2018-02-12T07:54:46.742Z,2.43
2018-02-12T07:55:46.463Z,2.46
2018-02-12T07:56:46.433Z,2.49
2018-02-12T07:57:46.644Z,2.46
2018-02-12T07:58:46.371Z,2.57
2018-02-12T07:59:46.345Z,2.53
2018-02-12T08:00:46.560Z,2.6
2018-02-12T08:01:46.037Z,2.6
2018-02-12T08:02:46.252Z,2.5
2018-02-12T08:03:46.221Z,2.53
2018-02-12T08:04:46.194Z,2.56
2018-02-12T08:05:46.403Z,2.51
2018-02-12T08:06:46.382Z,2.51
2018-02-12T08:07:46.342Z,2.54
2018-02-12T08:08:46.413Z,2.56
2018-02-12T08:09:46.085Z,2.57
2018-02-12T08:10:46.014Z,2.62
2018-02-12T08:11:45.981Z,2.61
2018-02-12T08:12:46.198Z,2.56
2018-02-12T08:13:46.166Z,2.53
2018-02-12T08:14:46.136Z,2.53
2018-02-12T08:15:46.100Z,2.6
2018-02-12T08:16:46.077Z,2.54
2018-02-12T08:17:45.816Z,2.44
2018-02-12T08:18:46.119Z,2.42
2018-02-12T08:19:45.739Z,2.56
2018-02-12T08:20:45.953Z,2.6
2018-02-12T08:21:45.685Z,2.57
2018-02-12T08:22:45.892Z,2.6
2018-02-12T08:23:45.862Z,2.62
2018-02-12T08:24:45.586Z,2.6
2018-02-12T08:25:45.310Z,2.71
2018-02-12T08:26:45.532Z,2.64
2018-02-12T08:27:45.500Z,2.62
2018-02-12T08:28:45.469Z,2.64
2018-02-12T08:29:45.691Z,2.65
2018-02-12T08:30:45.652Z,2.67
2018-02-12T08:31:45.378Z,2.67
2018-02-12T08:32:45.595Z,2.67
2018-02-12T08:33:45.393Z,2.61
2018-02-12T08:34:45.286Z,2.65
2018-02-12T08:35:45.258Z,2.64
2018-02-12T08:36:45.228Z,2.65
2018-02-12T08:37:45.193Z,2.61
2018-02-12T08:38:45.166Z,2.6
2018-02-12T08:39:45.394Z,2.61
2018-02-12T08:40:45.357Z,2.56
2018-02-12T08:41:44.831Z,2.57
2018-02-12T08:42:45.287Z,2.54
2018-02-12T08:43:45.261Z,2.57
2018-02-12T08:44:45.230Z,2.56
2018-02-12T08:45:45.203Z,2.51
2018-02-12T08:46:45.174Z,2.54
2018-02-12T08:47:45.140Z,2.61
2018-02-12T08:48:44.870Z,2.62
2018-02-12T08:49:45.081Z,2.69
2018-02-12T08:50:45.052Z,2.68
2018-02-12T08:51:45.019Z,2.56
2018-02-12T08:52:44.996Z,2.64
2018-02-12T08:53:44.968Z,2.6
2018-02-12T08:54:44.686Z,2.56
2018-02-12T08:55:44.905Z,2.64
2018-02-12T08:56:44.876Z,2.56
2018-02-12T08:57:44.848Z,2.5
2018-02-12T08:58:44.813Z,2.47
2018-02-12T08:59:44.789Z,2.56
2018-02-12T09:00:44.751Z,2.47
2018-02-12T09:01:44.233Z,2.51
2018-02-12T09:02:44.697Z,2.43
2018-02-12T09:03:44.671Z,2.46
2018-02-12T09:04:44.390Z,2.39
2018-02-12T09:05:44.365Z,2.38
2018-02-12T09:06:44.578Z,2.44
2018-02-12T09:07:44.299Z,2.39
2018-02-12T09:08:44.285Z,2.35
2018-02-12T09:09:44.246Z,2.35
2018-02-12T09:10:44.455Z,2.42
2018-02-12T09:11:44.424Z,2.42
2018-02-12T09:12:44.392Z,2.33
2018-02-12T09:13:44.126Z,2.39
2018-02-12T09:14:44.337Z,2.44
2018-02-12T09:15:44.304Z,2.44
2018-02-12T09:16:44.304Z,2.35
2018-02-12T09:17:43.998Z,2.44
2018-02-12T09:18:44.215Z,2.47
2018-02-12T09:19:44.181Z,2.53
2018-02-12T09:20:44.159Z,2.5
2018-02-12T09:21:44.126Z,2.43
2018-02-12T09:22:43.852Z,2.44
2018-02-12T09:23:44.067Z,2.49
2018-02-12T09:24:43.788Z,2.56
2018-02-12T09:25:44.004Z,2.57
2018-02-12T09:26:43.728Z,2.57
2018-02-12T09:27:43.750Z,2.54
2018-02-12T09:28:43.931Z,2.6
2018-02-12T09:29:43.885Z,2.67
2018-02-12T09:30:43.379Z,2.68
2018-02-12T09:31:43.590Z,2.62
2018-02-12T09:32:43.549Z,2.62
2018-02-12T09:33:43.761Z,2.67
2018-02-12T09:34:43.509Z,2.67
2018-02-12T09:35:43.704Z,2.69
2018-02-12T09:36:43.680Z,2.82
2018-02-12T09:37:43.400Z,2.79
2018-02-12T09:38:43.621Z,2.87
2018-02-12T09:39:43.582Z,2.9
2018-02-12T09:40:43.552Z,2.98
2018-02-12T09:41:43.551Z,3.04
2018-02-12T09:42:43.005Z,3.14
2018-02-12T09:43:43.223Z,3.08
2018-02-12T09:44:43.443Z,3.21
2018-02-12T09:45:43.011Z,3.18
2018-02-12T09:46:43.385Z,3.16
2018-02-12T09:47:43.105Z,3.14
2018-02-12T09:48:43.329Z,3.13
2018-02-12T09:49:43.291Z,3.13
2018-02-12T09:50:43.878Z,3.23
2018-02-12T09:51:43.800Z,3.37
2018-02-12T09:52:42.967Z,3.29
2018-02-12T09:53:43.171Z,3.37
2018-02-12T09:54:42.655Z,3.36
2018-02-12T09:55:42.875Z,3.36
2018-02-12T09:56:43.088Z,3.48
2018-02-12T09:57:43.077Z,3.45
2018-02-12T09:58:43.026Z,3.62
2018-02-12T09:59:43.005Z,3.56
2018-02-12T10:00:42.973Z,3.63
2018-02-12T10:01:42.942Z,3.55
2018-02-12T10:02:42.923Z,3.65
2018-02-12T10:03:42.891Z,3.56
2018-02-12T10:04:42.859Z,3.56
2018-02-12T10:05:42.830Z,3.56
2018-02-12T10:06:42.314Z,3.6
2018-02-12T10:07:42.528Z,3.56
2018-02-12T10:08:42.748Z,3.62
2018-02-12T10:09:42.714Z,3.62
2018-02-12T10:10:42.445Z,3.66
2018-02-12T10:11:42.425Z,3.8
2018-02-12T10:12:42.634Z,3.77
2018-02-12T10:13:42.359Z,3.78
2018-02-12T10:14:42.577Z,3.77
2018-02-12T10:15:42.305Z,3.84
2018-02-12T10:16:42.523Z,3.78
2018-02-12T10:17:42.509Z,3.8
2018-02-12T10:18:42.468Z,3.76
2018-02-12T10:19:42.436Z,3.86
2018-02-12T10:20:41.918Z,3.86
2018-02-12T10:21:42.137Z,3.74
2018-02-12T10:22:42.356Z,3.84
2018-02-12T10:23:42.090Z,3.86
2018-02-12T10:24:42.301Z,3.83
2018-02-12T10:25:42.420Z,3.78
2018-02-12T10:26:41.997Z,3.87
2018-02-12T10:27:41.966Z,3.88
2018-02-12T10:28:42.188Z,3.96
2018-02-12T10:29:41.909Z,3.83
2018-02-12T10:30:42.123Z,3.88
2018-02-12T10:31:42.108Z,3.86
2018-02-12T10:32:42.074Z,3.91
2018-02-12T10:33:41.799Z,3.96
2018-02-12T10:34:41.770Z,3.8
2018-02-12T10:35:41.985Z,3.83
2018-02-12T10:36:42.014Z,3.76
2018-02-12T10:37:41.945Z,3.78
2018-02-12T10:38:41.655Z,3.77
2018-02-12T10:39:41.654Z,3.77
2018-02-12T10:40:41.935Z,3.78
2018-02-12T10:41:41.825Z,3.76
2018-02-12T10:42:41.948Z,3.86
2018-02-12T10:43:41.273Z,3.78
2018-02-12T10:44:41.762Z,3.73
2018-02-12T10:45:41.716Z,3.86
2018-02-12T10:46:41.430Z,3.84
2018-02-12T10:47:41.658Z,3.81
2018-02-12T10:48:41.374Z,3.91
2018-02-12T10:49:41.597Z,3.8
2018-02-12T10:50:41.563Z,3.91
2018-02-12T10:51:41.550Z,3.94
2018-02-12T10:52:41.513Z,4.04
2018-02-12T10:53:40.987Z,4.01
2018-02-12T10:54:41.461Z,4.05
2018-02-12T10:55:40.935Z,4.04
2018-02-12T10:56:41.218Z,4.06
2018-02-12T10:57:41.395Z,4.08
2018-02-12T10:58:41.341Z,4.2
2018-02-12T10:59:40.822Z,4.28
2018-02-12T11:00:41.297Z,4.28
2018-02-12T11:01:41.262Z,4.23
2018-02-12T11:02:41.322Z,4.24
2018-02-12T11:03:40.955Z,4.2
2018-02-12T11:04:41.173Z,4.32
2018-02-12T11:05:41.147Z,4.26
2018-02-12T11:06:40.874Z,4.32
2018-02-12T11:07:40.850Z,4.34
2018-02-12T11:08:41.067Z,4.38
2018-02-12T11:09:40.547Z,4.41
2018-02-12T11:10:41.021Z,4.38
2018-02-12T11:11:40.748Z,4.44
2018-02-12T11:12:40.718Z,4.42
2018-02-12T11:13:40.933Z,4.44
2018-02-12T11:14:40.414Z,4.34
2018-02-12T11:15:40.877Z,4.28
2018-02-12T11:16:40.858Z,4.28
2018-02-12T11:17:40.577Z,4.26
2018-02-12T11:18:40.798Z,4.26
2018-02-12T11:19:40.525Z,4.28
2018-02-12T11:20:40.751Z,4.26
2018-02-12T11:21:40.796Z,4.26
2018-02-12T11:22:40.683Z,4.3
2018-02-12T11:23:40.896Z,4.19
2018-02-12T11:24:40.235Z,4.23
2018-02-12T11:25:40.608Z,4.17
2018-02-12T11:26:40.583Z,4.2
2018-02-12T11:27:40.307Z,4.28
2018-02-12T11:28:40.286Z,4.2
2018-02-12T11:29:40.504Z,4.31
2018-02-12T11:30:40.222Z,4.28
2018-02-12T11:31:40.452Z,4.35
2018-02-12T11:32:40.166Z,4.38
2018-02-12T11:33:40.383Z,4.34
2018-02-12T11:34:40.488Z,4.41
2018-02-12T11:35:40.084Z,4.35
2018-02-12T11:36:40.057Z,4.42
2018-02-12T11:37:40.027Z,4.52
2018-02-12T11:38:39.997Z,4.55
2018-02-12T11:39:40.218Z,4.56
2018-02-12T11:40:40.189Z,4.68
2018-02-12T11:41:39.918Z,4.75
2018-02-12T11:42:40.134Z,4.82
2018-02-12T11:43:39.860Z,4.9
2018-02-12T11:44:40.079Z,4.87
2018-02-12T11:45:40.056Z,4.93
2018-02-12T11:46:39.530Z,4.93
2018-02-12T11:47:39.747Z,4.96
2018-02-12T11:48:39.722Z,4.94
2018-02-12T11:49:39.943Z,4.97
2018-02-12T11:50:39.912Z,5
2018-02-12T11:51:39.888Z,4.96
2018-02-12T11:52:39.900Z,5.05
2018-02-12T11:53:39.340Z,5.1
2018-02-12T11:54:39.808Z,5.05
2018-02-12T11:55:39.531Z,5.08
2018-02-12T11:56:39.753Z,5.04
2018-02-12T11:57:39.474Z,5.04
2018-02-12T11:58:39.448Z,5
2018-02-12T11:59:39.666Z,4.96
2018-02-12T12:00:39.647Z,5
2018-02-12T12:01:39.606Z,4.89
2018-02-12T12:02:39.089Z,5.02
2018-02-12T12:03:39.596Z,5.07
2018-02-12T12:04:39.530Z,5.14
2018-02-12T12:05:39.504Z,5.17
2018-02-12T12:06:39.480Z,5.33
2018-02-12T12:07:38.958Z,5.28
2018-02-12T12:08:39.183Z,5.17
2018-02-12T12:09:39.146Z,5.11
2018-02-12T12:10:39.145Z,5.08
2018-02-12T12:11:39.343Z,5.02
2018-02-12T12:12:39.315Z,5.1
2018-02-12T12:13:39.044Z,4.99
2018-02-12T12:14:39.266Z,5.04
2018-02-12T12:15:39.006Z,4.97
2018-02-12T12:16:38.961Z,5.04
2018-02-12T12:17:38.950Z,4.97
2018-02-12T12:18:38.913Z,5.05
2018-02-12T12:19:38.638Z,4.94
2018-02-12T12:20:38.862Z,4.97
2018-02-12T12:21:39.081Z,4.99
2018-02-12T12:22:38.806Z,4.87
2018-02-12T12:23:39.022Z,4.89
2018-02-12T12:24:38.995Z,4.87
2018-02-12T12:25:38.972Z,4.9
2018-02-12T12:26:38.705Z,4.87
2018-02-12T12:27:38.914Z,4.82
2018-02-12T12:28:38.890Z,4.87
2018-02-12T12:29:38.863Z,4.84
2018-02-12T12:30:38.834Z,4.86
2018-02-12T12:31:38.810Z,4.97
2018-02-12T12:32:38.781Z,5
2018-02-12T12:33:38.761Z,4.97
2018-02-12T12:34:38.726Z,4.96
2018-02-12T12:35:38.703Z,4.96
2018-02-12T12:36:38.681Z,5.02
2018-02-12T12:37:38.402Z,5.02
2018-02-12T12:38:38.623Z,5.12
2018-02-12T12:39:38.592Z,5.17
2018-02-12T12:40:38.658Z,5.15
2018-02-12T12:41:38.539Z,5.36
2018-02-12T12:42:38.267Z,5.32
2018-02-12T12:43:38.485Z,5.32
2018-02-12T12:44:38.456Z,5.29
2018-02-12T12:45:38.438Z,5.3
2018-02-12T12:46:38.405Z,5.25
2018-02-12T12:47:38.392Z,5.21
2018-02-12T12:48:38.104Z,5.14
2018-02-12T12:49:38.327Z,5.04
2018-02-12T12:50:38.018Z,4.97
2018-02-12T12:51:38.393Z,4.93
2018-02-12T12:52:38.923Z,4.86
2018-02-12T12:53:38.343Z,4.89
2018-02-12T12:54:38.702Z,4.86
2018-02-12T12:55:38.454Z,4.87
2018-02-12T12:56:38.727Z,4.94
2018-02-12T12:57:38.108Z,4.94
2018-02-12T12:58:38.082Z,4.97
2018-02-12T12:59:38.055Z,4.96
2018-02-12T13:00:37.537Z,4.94
2018-02-12T13:01:39.288Z,4.86
2018-02-12T13:02:37.726Z,4.94
2018-02-12T13:03:37.944Z,5.04
2018-02-12T13:04:37.919Z,5.07
2018-02-12T13:05:37.694Z,5.05
2018-02-12T13:06:37.618Z,5.04
2018-02-12T13:07:37.841Z,5.1
2018-02-12T13:08:37.811Z,5.11
2018-02-12T13:09:37.786Z,5.12
2018-02-12T13:10:37.515Z,5.05
2018-02-12T13:11:37.728Z,5.04
2018-02-12T13:12:37.705Z,5.07
2018-02-12T13:13:37.453Z,5.12
2018-02-12T13:14:37.658Z,5.14
2018-02-12T13:15:37.376Z,5.18
2018-02-12T13:16:37.871Z,5.23
2018-02-12T13:17:37.671Z,5.25
2018-02-12T13:18:37.293Z,5.32
2018-02-12T13:19:37.514Z,5.3
2018-02-12T13:20:36.997Z,5.33
2018-02-12T13:21:37.219Z,5.32
2018-02-12T13:22:37.437Z,5.17